Time;durP1;ratioP1;P1;durP2;ratioP2;P2;SDS_P1;SDS_P2;PMS_P1;PMS_P2;Temp;Humidity;BMP_temperature;BMP_pressure;BME280_temperature;BME280_humidity;BME280_pressure;Samples;Min_cycle;Max_cycle;Signal;HPM_P1;HPM_P2
2024/02/22 00:02:27;;;;;;;;;;;;;;;;;;4988842;28;5031;-62
2024/02/22 00:04:53;;;;;;;;;;;;;;;;;;4984704;28;5092;-63
2024/02/22 00:07:18;;;;;;;;;;;;;;;;;;4992449;28;5041;-61
2024/02/22 00:09:43;;;;;;;;;;;;;;;;;;4988443;28;4732;-62
2024/02/22 00:12:09;;;;;;;;;;;;;;;;;;4990566;28;3283;-61
2024/02/22 00:14:34;;;;;;;;;;;;;;;;;;4985909;28;4993;-61
2024/02/22 00:17:02;;;;;;;;;;;;;;;;;;4990342;28;4549;-60
2024/02/22 00:19:28;;;;;;;;;;;;;;;;;;5000754;28;5061;-61
2024/02/22 00:21:53;;;;;;;;;;;;;;;;;;4995451;28;5099;-62
2024/02/22 00:24:18;;;;;;;;;;;;;;;;;;4980493;28;5264;-61
2024/02/22 00:26:45;;;;;;;;;;;;;;;;;;4993686;28;3280;-60
2024/02/22 00:29:11;;;;;;;;;;;;;;;;;;5021026;28;5149;-61
2024/02/22 00:31:36;;;;;;;;;;;;;;;;;;4995415;28;5114;-61
2024/02/22 00:34:02;;;;;;;;;;;;;;;;;;4989432;28;5105;-63
2024/02/22 00:36:27;;;;;;;;;;;;;;;;;;4991020;28;5099;-61
2024/02/22 00:38:53;;;;;;;;;;;;;;;;;;4987235;28;3311;-61
2024/02/22 00:41:18;;;;;;;;;;;;;;;;;;4985807;28;4779;-63
2024/02/22 00:43:44;;;;;;;;;;;;;;;;;;4987842;28;5100;-61
2024/02/22 00:46:09;;;;;;;;;;;;;;;;;;4998666;28;4659;-61
2024/02/22 00:48:34;;;;;;;;;;;;;;;;;;5012189;28;5285;-64
2024/02/22 00:51:01;;;;;;;;;;;;;;;;;;4990440;28;3321;-61
2024/02/22 00:53:26;;;;;;;;;;;;;;;;;;4984383;28;4721;-60
2024/02/22 00:55:51;;;;;;;;;;;;;;;;;;4986728;28;4544;-62
2024/02/22 00:58:17;;;;;;;;;;;;;;;;;;4991999;28;5103;-62
2024/02/22 01:00:42;;;;;;;;;;;;;;;;;;5010021;28;4676;-62
2024/02/22 01:03:07;;;;;;;;;;;;;;;;;;5007339;28;3340;-63
2024/02/22 01:05:33;;;;;;;;;;;;;;;;;;5016312;28;4691;-61
2024/02/22 01:07:59;;;;;;;;;;;;;;;;;;5007558;28;5106;-61
2024/02/22 01:10:24;;;;;;;;;;;;;;;;;;4996953;28;5296;-61
2024/02/22 01:12:49;;;;;;;;;;;;;;;;;;4985356;28;5071;-61
2024/02/22 01:15:15;;;;;;;;;;;;;;;;;;4981937;28;4702;-60
2024/02/22 01:17:40;;;;;;;;;;;;;;;;;;4987436;28;3303;-61
2024/02/22 01:20:06;;;;;;;;;;;;;;;;;;4982074;28;5073;-62
2024/02/22 01:22:31;;;;;;;;;;;;;;;;;;4989507;28;5083;-62
2024/02/22 01:24:57;;;;;;;;;;;;;;;;;;4988991;28;4816;-62
2024/02/22 01:27:22;;;;;;;;;;;;;;;;;;4989711;28;5220;-63
2024/02/22 01:29:48;;;;;;;;;;;;;;;;;;4984179;28;3322;-63
2024/02/22 01:32:13;;;;;;;;;;;;;;;;;;4981758;28;4678;-62
2024/02/22 01:34:39;;;;;;;;;;;;;;;;;;4986139;28;5003;-65
2024/02/22 01:37:05;;;;;;;;;;;;;;;;;;4982555;28;5123;-61
2024/02/22 01:39:30;;;;;;;;;;;;;;;;;;4983292;28;5155;-61
2024/02/22 01:41:55;;;;;;;;;;;;;;;;;;4986092;28;3028;-63
2024/02/22 01:44:24;;;;;;;;;;;;;;;;;;4981436;28;4971;-61
2024/02/22 01:46:49;;;;;;;;;;;;;;;;;;5014638;28;5213;-62
2024/02/22 01:49:15;;;;;;;;;;;;;;;;;;5016287;28;5023;-62
2024/02/22 01:51:41;;;;;;;;;;;;;;;;;;5014480;28;5181;-62
2024/02/22 01:54:06;;;;;;;;;;;;;;;;;;4989318;28;3248;-60
2024/02/22 01:56:31;;;;;;;;;;;;;;;;;;4989061;28;4469;-66
2024/02/22 01:58:57;;;;;;;;;;;;;;;;;;5012142;28;5166;-62
2024/02/22 02:01:23;;;;;;;;;;;;;;;;;;4979046;28;5168;-61
2024/02/22 02:03:49;;;;;;;;;;;;;;;;;;5009976;28;5081;-62
2024/02/22 02:06:15;;;;;;;;;;;;;;;;;;4982685;28;4613;-62
2024/02/22 02:08:40;;;;;;;;;;;;;;;;;;4979142;28;3527;-62
2024/02/22 02:11:05;;;;;;;;;;;;;;;;;;5003584;28;5326;-61
2024/02/22 02:13:31;;;;;;;;;;;;;;;;;;4990287;28;5066;-62
2024/02/22 02:15:57;;;;;;;;;;;;;;;;;;4990171;28;4506;-62
2024/02/22 02:18:22;;;;;;;;;;;;;;;;;;4987547;28;5614;-63
2024/02/22 02:20:55;;;;;;;;;;;;;;;;;;4985489;28;3459;-65
2024/02/22 02:23:26;;;;;;;;;;;;;;;;;;4979519;28;4991;-61
2024/02/22 02:25:51;;;;;;;;;;;;;;;;;;4985017;28;4971;-62
2024/02/22 02:28:17;;;;;;;;;;;;;;;;;;4985689;28;4656;-64
2024/02/22 02:30:42;;;;;;;;;;;;;;;;;;4979995;28;4533;-61
2024/02/22 02:33:07;;;;;;;;;;;;;;;;;;4982002;28;3259;-61
2024/02/22 02:35:37;;;;;;;;;;;;;;;;;;5000319;28;5034;-63
2024/02/22 02:38:06;;;;;;;;;;;;;;;;;;5011500;28;5019;-61
2024/02/22 02:40:32;;;;;;;;;;;;;;;;;;5011679;28;4762;-61
2024/02/22 02:42:57;;;;;;;;;;;;;;;;;;5005906;28;5146;-60
2024/02/22 02:45:22;;;;;;;;;;;;;;;;;;5013369;28;5029;-61
2024/02/22 02:47:48;;;;;;;;;;;;;;;;;;5011425;28;3237;-60
2024/02/22 02:50:13;;;;;;;;;;;;;;;;;;5007280;28;4535;-62
2024/02/22 02:52:38;;;;;;;;;;;;;;;;;;5013399;28;5029;-61
2024/02/22 02:55:04;;;;;;;;;;;;;;;;;;5021620;28;4678;-61
2024/02/22 02:57:29;;;;;;;;;;;;;;;;;;5014160;28;4475;-61
2024/02/22 02:59:55;;;;;;;;;;;;;;;;;;5011959;28;2467;-62
2024/02/22 03:02:20;;;;;;;;;;;;;;;;;;5002278;28;5336;-61
2024/02/22 03:04:45;;;;;;;;;;;;;;;;;;5012023;28;4550;-63
2024/02/22 03:07:11;;;;;;;;;;;;;;;;;;5011717;28;5046;-61
2024/02/22 03:09:36;;;;;;;;;;;;;;;;;;5014676;28;4867;-61
2024/02/22 03:12:01;;;;;;;;;;;;;;;;;;5011502;28;3284;-61
2024/02/22 03:14:26;;;;;;;;;;;;;;;;;;5007709;28;5063;-62
2024/02/22 03:16:52;;;;;;;;;;;;;;;;;;5014997;28;5007;-62
2024/02/22 03:19:17;;;;;;;;;;;;;;;;;;5010500;28;5196;-61
2024/02/22 03:21:42;;;;;;;;;;;;;;;;;;5017916;28;5002;-61
2024/02/22 03:24:08;;;;;;;;;;;;;;;;;;5008386;28;3264;-60
2024/02/22 03:26:34;;;;;;;;;;;;;;;;;;5010970;28;4882;-60
2024/02/22 03:28:59;;;;;;;;;;;;;;;;;;5006297;28;5123;-61
2024/02/22 03:31:25;;;;;;;;;;;;;;;;;;5008083;28;5052;-62
2024/02/22 03:33:51;;;;;;;;;;;;;;;;;;5001720;28;4947;-60
2024/02/22 03:36:16;;;;;;;;;;;;;;;;;;4990972;28;4976;-65
2024/02/22 03:38:41;;;;;;;;;;;;;;;;;;4984800;28;3682;-62
2024/02/22 03:41:07;;;;;;;;;;;;;;;;;;4986379;28;5103;-61
2024/02/22 03:43:33;;;;;;;;;;;;;;;;;;4985059;28;5043;-60
2024/02/22 03:45:59;;;;;;;;;;;;;;;;;;4980872;28;5345;-61
2024/02/22 03:48:24;;;;;;;;;;;;;;;;;;4984085;28;5012;-60
2024/02/22 03:50:49;;;;;;;;;;;;;;;;;;4990738;28;1468;-62
2024/02/22 03:53:15;;;;;;;;;;;;;;;;;;4985953;28;5417;-61
2024/02/22 03:55:41;;;;;;;;;;;;;;;;;;4991583;28;5184;-62
2024/02/22 03:58:06;;;;;;;;;;;;;;;;;;4981765;28;5259;-61
2024/02/22 04:00:33;;;;;;;;;;;;;;;;;;4993805;28;4678;-61
2024/02/22 04:02:58;;;;;;;;;;;;;;;;;;4982637;28;3285;-61
2024/02/22 04:05:23;;;;;;;;;;;;;;;;;;4986488;28;4481;-61
2024/02/22 04:07:49;;;;;;;;;;;;;;;;;;4988397;28;5163;-62
2024/02/22 04:10:14;;;;;;;;;;;;;;;;;;5031560;28;4780;-62
2024/02/22 04:12:39;;;;;;;;;;;;;;;;;;5013812;28;5048;-60
2024/02/22 04:15:05;;;;;;;;;;;;;;;;;;5009308;28;3310;-62
2024/02/22 04:17:30;;;;;;;;;;;;;;;;;;5001853;28;4491;-62
2024/02/22 04:19:56;;;;;;;;;;;;;;;;;;4998337;28;4665;-61
2024/02/22 04:22:21;;;;;;;;;;;;;;;;;;4986668;28;5044;-60
2024/02/22 04:24:46;;;;;;;;;;;;;;;;;;4984533;28;5054;-62
2024/02/22 04:27:12;;;;;;;;;;;;;;;;;;4987331;28;3276;-63
2024/02/22 04:29:38;;;;;;;;;;;;;;;;;;4985201;28;5103;-61
2024/02/22 04:32:03;;;;;;;;;;;;;;;;;;4986107;28;4941;-63
2024/02/22 04:34:28;;;;;;;;;;;;;;;;;;4987421;28;5071;-61
2024/02/22 04:36:55;;;;;;;;;;;;;;;;;;4985219;28;5102;-62
2024/02/22 04:39:20;;;;;;;;;;;;;;;;;;4989326;28;5046;-63
2024/02/22 04:41:45;;;;;;;;;;;;;;;;;;4993017;28;3181;-60
2024/02/22 04:44:11;;;;;;;;;;;;;;;;;;4991015;28;4729;-62
2024/02/22 04:46:36;;;;;;;;;;;;;;;;;;4986417;28;5226;-62
2024/02/22 04:49:04;;;;;;;;;;;;;;;;;;4992350;28;5182;-59
2024/02/22 04:51:30;;;;;;;;;;;;;;;;;;4985387;28;4717;-61
2024/02/22 04:53:55;;;;;;;;;;;;;;;;;;4987647;28;3423;-60
2024/02/22 04:56:21;;;;;;;;;;;;;;;;;;4990376;28;5042;-61
2024/02/22 04:58:46;;;;;;;;;;;;;;;;;;4987504;28;5759;-62
2024/02/22 05:01:11;;;;;;;;;;;;;;;;;;4986087;28;5188;-61
2024/02/22 05:03:37;;;;;;;;;;;;;;;;;;4980847;28;5108;-62
2024/02/22 05:06:02;;;;;;;;;;;;;;;;;;4984338;28;3274;-63
2024/02/22 05:08:27;;;;;;;;;;;;;;;;;;4988700;28;5077;-59
2024/02/22 05:10:53;;;;;;;;;;;;;;;;;;4992613;28;5207;-63
2024/02/22 05:13:19;;;;;;;;;;;;;;;;;;4992294;28;5206;-61
2024/02/22 05:15:45;;;;;;;;;;;;;;;;;;4990080;28;4580;-61
2024/02/22 05:18:11;;;;;;;;;;;;;;;;;;5022648;28;3366;-60
2024/02/22 05:20:37;;;;;;;;;;;;;;;;;;4986940;28;5263;-60
2024/02/22 05:23:04;;;;;;;;;;;;;;;;;;4986364;28;4482;-59
2024/02/22 05:25:29;;;;;;;;;;;;;;;;;;4986276;28;5157;-61
2024/02/22 05:27:54;;;;;;;;;;;;;;;;;;4975560;28;4529;-60
2024/02/22 05:30:20;;;;;;;;;;;;;;;;;;4982269;28;5147;-64
2024/02/22 05:32:45;;;;;;;;;;;;;;;;;;4990964;28;3240;-60
2024/02/22 05:35:10;;;;;;;;;;;;;;;;;;4992328;28;4536;-62
2024/02/22 05:37:36;;;;;;;;;;;;;;;;;;4989244;28;5090;-62
2024/02/22 05:40:03;;;;;;;;;;;;;;;;;;4992218;28;4513;-61
2024/02/22 05:42:28;;;;;;;;;;;;;;;;;;4992934;28;5108;-62
2024/02/22 05:44:53;;;;;;;;;;;;;;;;;;4984953;28;3420;-60
2024/02/22 05:47:19;;;;;;;;;;;;;;;;;;4984422;28;5143;-61
2024/02/22 05:49:44;;;;;;;;;;;;;;;;;;4990513;28;5087;-63
2024/02/22 05:52:11;;;;;;;;;;;;;;;;;;4984855;28;5127;-63
2024/02/22 05:54:36;;;;;;;;;;;;;;;;;;4990863;28;4715;-61
2024/02/22 05:57:02;;;;;;;;;;;;;;;;;;4984223;28;3380;-61
2024/02/22 05:59:28;;;;;;;;;;;;;;;;;;4982717;28;4970;-60
2024/02/22 06:01:53;;;;;;;;;;;;;;;;;;4984415;28;5012;-60
2024/02/22 06:04:18;;;;;;;;;;;;;;;;;;4986240;28;5121;-63
2024/02/22 06:06:44;;;;;;;;;;;;;;;;;;4984404;28;5058;-62
2024/02/22 06:09:09;;;;;;;;;;;;;;;;;;4985525;28;3319;-60
2024/02/22 06:11:35;;;;;;;;;;;;;;;;;;5015492;28;4543;-61
2024/02/22 06:14:00;;;;;;;;;;;;;;;;;;5002471;28;4503;-61
2024/02/22 06:16:26;;;;;;;;;;;;;;;;;;4999263;28;5106;-62
2024/02/22 06:18:51;;;;;;;;;;;;;;;;;;5001025;28;5072;-62
2024/02/22 06:21:16;;;;;;;;;;;;;;;;;;5005192;28;5118;-71
2024/02/22 06:23:42;;;;;;;;;;;;;;;;;;5003462;28;3372;-71
2024/02/22 06:26:07;;;;;;;;;;;;;;;;;;5003172;28;5039;-68
2024/02/22 06:28:33;;;;;;;;;;;;;;;;;;4994901;28;4576;-68
2024/02/22 06:30:59;;;;;;;;;;;;;;;;;;4992432;28;5044;-66
2024/02/22 06:33:24;;;;;;;;;;;;;;;;;;5004423;28;5146;-68
2024/02/22 06:35:50;;;;;;;;;;;;;;;;;;4990032;28;1133;-67
2024/02/22 06:38:16;;;;;;;;;;;;;;;;;;5003048;28;4543;-68
2024/02/22 06:40:48;;;;;;;;;;;;;;;;;;4989774;28;5035;-68
2024/02/22 06:43:14;;;;;;;;;;;;;;;;;;5019895;28;4917;-67
2024/02/22 06:45:40;;;;;;;;;;;;;;;;;;4989397;28;5112;-68
2024/02/22 06:48:07;;;;;;;;;;;;;;;;;;4988838;28;1470;-67
2024/02/22 06:50:32;;;;;;;;;;;;;;;;;;4990901;28;4950;-68
2024/02/22 06:52:58;;;;;;;;;;;;;;;;;;4988473;28;4660;-68
2024/02/22 06:55:24;;;;;;;;;;;;;;;;;;4990753;28;5132;-68
2024/02/22 06:57:50;;;;;;;;;;;;;;;;;;4988864;28;4482;-68
2024/02/22 07:00:15;;;;;;;;;;;;;;;;;;5029692;28;5070;-67
2024/02/22 07:02:41;;;;;;;;;;;;;;;;;;4995529;28;1368;-68
2024/02/22 07:05:07;;;;;;;;;;;;;;;;;;4992187;28;5234;-68
2024/02/22 07:07:32;;;;;;;;;;;;;;;;;;4993899;28;4534;-69
2024/02/22 07:09:57;;;;;;;;;;;;;;;;;;4989769;28;4536;-68
2024/02/22 07:12:23;;;;;;;;;;;;;;;;;;4991399;28;5242;-67
2024/02/22 07:14:49;;;;;;;;;;;;;;;;;;5001717;28;2408;-67
2024/02/22 07:17:14;;;;;;;;;;;;;;;;;;4994996;28;4833;-69
2024/02/22 07:19:42;;;;;;;;;;;;;;;;;;4995598;28;5360;-66
2024/02/22 07:22:07;;;;;;;;;;;;;;;;;;4999616;28;5174;-67
2024/02/22 07:24:33;;;;;;;;;;;;;;;;;;4988924;28;4640;-67
2024/02/22 07:26:58;;;;;;;;;;;;;;;;;;4994586;28;1120;-67
2024/02/22 07:29:24;;;;;;;;;;;;;;;;;;4997312;28;5096;-67
2024/02/22 07:31:50;;;;;;;;;;;;;;;;;;4991726;28;5037;-67
2024/02/22 07:34:15;;;;;;;;;;;;;;;;;;5000973;28;5111;-68
2024/02/22 07:36:40;;;;;;;;;;;;;;;;;;5000911;28;5092;-68
2024/02/22 07:39:06;;;;;;;;;;;;;;;;;;5000926;28;1181;-67
2024/02/22 07:41:31;;;;;;;;;;;;;;;;;;5025528;28;4747;-68
2024/02/22 07:43:56;;;;;;;;;;;;;;;;;;5000352;28;5036;-67
2024/02/22 07:46:22;;;;;;;;;;;;;;;;;;4996920;28;4990;-67
2024/02/22 07:48:47;;;;;;;;;;;;;;;;;;5002330;28;4884;-68
2024/02/22 07:51:12;;;;;;;;;;;;;;;;;;5000116;28;1244;-67
2024/02/22 07:53:37;;;;;;;;;;;;;;;;;;5002558;28;4714;-68
2024/02/22 07:56:03;;;;;;;;;;;;;;;;;;4994556;28;4771;-67
2024/02/22 07:58:30;;;;;;;;;;;;;;;;;;4993979;28;4965;-68
2024/02/22 08:00:58;;;;;;;;;;;;;;;;;;5000531;28;4667;-67
2024/02/22 08:03:24;;;;;;;;;;;;;;;;;;4993823;28;4494;-68
2024/02/22 08:05:50;;;;;;;;;;;;;;;;;;4998802;28;1934;-69
2024/02/22 08:08:16;;;;;;;;;;;;;;;;;;5008142;28;5057;-69
2024/02/22 08:10:41;;;;;;;;;;;;;;;;;;5007651;28;5115;-68
2024/02/22 08:13:06;;;;;;;;;;;;;;;;;;5007483;28;5075;-68
2024/02/22 08:15:32;;;;;;;;;;;;;;;;;;5007066;28;5064;-69
2024/02/22 08:17:59;;;;;;;;;;;;;;;;;;5007601;28;1164;-67
2024/02/22 08:20:24;;;;;;;;;;;;;;;;;;4992244;28;4990;-68
2024/02/22 08:22:50;;;;;;;;;;;;;;;;;;4994453;28;5157;-68
2024/02/22 08:25:15;;;;;;;;;;;;;;;;;;4992208;28;5214;-67
2024/02/22 08:27:41;;;;;;;;;;;;;;;;;;4989545;28;5022;-67
2024/02/22 08:30:09;;;;;;;;;;;;;;;;;;4993221;28;1121;-68
2024/02/22 08:32:34;;;;;;;;;;;;;;;;;;4999470;28;4939;-67
2024/02/22 08:35:00;;;;;;;;;;;;;;;;;;4995994;28;4682;-68
2024/02/22 08:37:25;;;;;;;;;;;;;;;;;;4996581;28;4987;-68
2024/02/22 08:39:50;;;;;;;;;;;;;;;;;;4992786;28;4932;-68
2024/02/22 08:42:16;;;;;;;;;;;;;;;;;;4993119;28;4879;-68
2024/02/22 08:44:41;;;;;;;;;;;;;;;;;;4992486;28;1983;-68
2024/02/22 08:47:09;;;;;;;;;;;;;;;;;;4999104;28;4461;-68
2024/02/22 08:49:34;;;;;;;;;;;;;;;;;;4997029;28;4471;-68
2024/02/22 08:52:03;;;;;;;;;;;;;;;;;;4996833;28;5186;-68
2024/02/22 08:54:29;;;;;;;;;;;;;;;;;;4994286;28;5166;-68
2024/02/22 08:56:54;;;;;;;;;;;;;;;;;;5001703;28;1158;-68
2024/02/22 08:59:19;;;;;;;;;;;;;;;;;;4993849;28;5802;-67
2024/02/22 09:01:47;;;;;;;;;;;;;;;;;;4990121;28;5073;-68
2024/02/22 09:04:12;;;;;;;;;;;;;;;;;;4994173;28;5008;-67
2024/02/22 09:06:37;;;;;;;;;;;;;;;;;;4988635;28;5201;-67
2024/02/22 09:09:07;;;;;;;;;;;;;;;;;;4992467;28;974;-68
2024/02/22 09:11:32;;;;;;;;;;;;;;;;;;5007320;28;5027;-66
2024/02/22 09:13:58;;;;;;;;;;;;;;;;;;5008164;28;5203;-66
2024/02/22 09:16:25;;;;;;;;;;;;;;;;;;5013624;28;4893;-68
2024/02/22 09:18:50;;;;;;;;;;;;;;;;;;5008603;28;5283;-67
2024/02/22 09:21:15;;;;;;;;;;;;;;;;;;5013203;28;5273;-67
2024/02/22 09:23:41;;;;;;;;;;;;;;;;;;5012728;28;1090;-67
2024/02/22 09:26:06;;;;;;;;;;;;;;;;;;5013529;28;5202;-67
2024/02/22 09:28:31;;;;;;;;;;;;;;;;;;5013187;28;5929;-67
2024/02/22 09:30:57;;;;;;;;;;;;;;;;;;5002275;28;5013;-67
2024/02/22 09:33:22;;;;;;;;;;;;;;;;;;4985325;28;5149;-67
2024/02/22 09:35:48;;;;;;;;;;;;;;;;;;4999114;28;1153;-67
2024/02/22 09:38:13;;;;;;;;;;;;;;;;;;4989737;28;5062;-67
2024/02/22 09:40:38;;;;;;;;;;;;;;;;;;4997474;28;5047;-67
2024/02/22 09:43:05;;;;;;;;;;;;;;;;;;4997448;28;4483;-67
2024/02/22 09:45:30;;;;;;;;;;;;;;;;;;4994648;28;4721;-67
2024/02/22 09:47:56;;;;;;;;;;;;;;;;;;4996061;28;1184;-67
2024/02/22 09:50:21;;;;;;;;;;;;;;;;;;4997208;28;4981;-68
2024/02/22 09:52:47;;;;;;;;;;;;;;;;;;5020573;28;5199;-68
2024/02/22 09:55:12;;;;;;;;;;;;;;;;;;4997589;28;5136;-68
2024/02/22 09:57:37;;;;;;;;;;;;;;;;;;5017200;28;5671;-68
2024/02/22 10:00:06;;;;;;;;;;;;;;;;;;5001405;28;1110;-68
2024/02/22 10:02:31;;;;;;;;;;;;;;;;;;4982372;28;5069;-68
2024/02/22 10:04:57;;;;;;;;;;;;;;;;;;4995286;28;4619;-68
2024/02/22 10:07:26;;;;;;;;;;;;;;;;;;4989862;28;5115;-68
2024/02/22 10:09:51;;;;;;;;;;;;;;;;;;4995846;28;4898;-68
2024/02/22 10:12:26;;;;;;;;;;;;;;;;;;4993240;28;5135;-67
2024/02/22 10:14:52;;;;;;;;;;;;;;;;;;4988810;28;1064;-67
2024/02/22 10:17:22;;;;;;;;;;;;;;;;;;4996705;28;5100;-68
2024/02/22 10:19:54;;;;;;;;;;;;;;;;;;4983819;28;4687;-68
2024/02/22 10:22:24;;;;;;;;;;;;;;;;;;4989574;28;4528;-68
2024/02/22 10:24:49;;;;;;;;;;;;;;;;;;4984984;28;4685;-68
2024/02/22 10:27:14;;;;;;;;;;;;;;;;;;4987924;28;5112;-67
2024/02/22 10:29:40;;;;;;;;;;;;;;;;;;4999334;28;1145;-68
2024/02/22 10:32:07;;;;;;;;;;;;;;;;;;5008585;28;5001;-68
2024/02/22 10:34:32;;;;;;;;;;;;;;;;;;5012297;28;5151;-68
2024/02/22 10:36:59;;;;;;;;;;;;;;;;;;5015375;28;5143;-68
2024/02/22 10:39:24;;;;;;;;;;;;;;;;;;4991627;28;5026;-68
2024/02/22 10:41:49;;;;;;;;;;;;;;;;;;4995578;28;1096;-68
2024/02/22 10:44:15;;;;;;;;;;;;;;;;;;5023343;28;4697;-68
2024/02/22 10:46:40;;;;;;;;;;;;;;;;;;4990048;28;5119;-68
2024/02/22 10:49:11;;;;;;;;;;;;;;;;;;5016277;28;4894;-68
2024/02/22 10:51:38;;;;;;;;;;;;;;;;;;4998643;28;5170;-67
2024/02/22 10:54:03;;;;;;;;;;;;;;;;;;4991949;28;1235;-69
2024/02/22 10:56:30;;;;;;;;;;;;;;;;;;4991068;28;5770;-68
2024/02/22 10:58:57;;;;;;;;;;;;;;;;;;4996579;28;4514;-69
2024/02/22 11:01:22;;;;;;;;;;;;;;;;;;4994715;28;5079;-68
2024/02/22 11:03:47;;;;;;;;;;;;;;;;;;5016017;28;5310;-68
2024/02/22 11:06:13;;;;;;;;;;;;;;;;;;5018240;28;1917;-68
2024/02/22 11:08:46;;;;;;;;;;;;;;;;;;4996228;28;5017;-68
2024/02/22 11:11:12;;;;;;;;;;;;;;;;;;5015754;28;4991;-67
2024/02/22 11:13:37;;;;;;;;;;;;;;;;;;4997383;28;4565;-68
2024/02/22 11:16:13;;;;;;;;;;;;;;;;;;4990436;28;4543;-68
2024/02/22 11:18:38;;;;;;;;;;;;;;;;;;4994318;28;5025;-68
2024/02/22 11:21:10;;;;;;;;;;;;;;;;;;4996436;28;1158;-68
2024/02/22 11:23:35;;;;;;;;;;;;;;;;;;4994316;28;4956;-69
2024/02/22 11:26:00;;;;;;;;;;;;;;;;;;5023749;28;5483;-68
2024/02/22 11:28:27;;;;;;;;;;;;;;;;;;4995376;28;5134;-67
2024/02/22 11:30:52;;;;;;;;;;;;;;;;;;4992030;28;5314;-68
2024/02/22 11:33:21;;;;;;;;;;;;;;;;;;4989744;28;5015;-68
2024/02/22 11:35:51;;;;;;;;;;;;;;;;;;4993617;28;1180;-67
2024/02/22 11:38:19;;;;;;;;;;;;;;;;;;4993721;28;4637;-68
2024/02/22 11:40:44;;;;;;;;;;;;;;;;;;4994608;28;5016;-67
2024/02/22 11:43:09;;;;;;;;;;;;;;;;;;4997102;28;5091;-68
2024/02/22 11:45:35;;;;;;;;;;;;;;;;;;4996000;28;4993;-68
2024/02/22 11:48:01;;;;;;;;;;;;;;;;;;4997654;28;1093;-68
2024/02/22 11:50:30;;;;;;;;;;;;;;;;;;5002172;28;4997;-68
2024/02/22 11:52:58;;;;;;;;;;;;;;;;;;4995071;28;5131;-68
2024/02/22 11:55:23;;;;;;;;;;;;;;;;;;4995182;28;5166;-68
2024/02/22 11:57:49;;;;;;;;;;;;;;;;;;4994518;28;5020;-68
2024/02/22 12:00:14;;;;;;;;;;;;;;;;;;5003629;28;4498;-66
2024/02/22 12:02:40;;;;;;;;;;;;;;;;;;4984826;28;1550;-68
2024/02/22 12:05:11;;;;;;;;;;;;;;;;;;5025506;28;4839;-68
2024/02/22 12:07:37;;;;;;;;;;;;;;;;;;4990383;28;5283;-68
2024/02/22 12:10:03;;;;;;;;;;;;;;;;;;4992472;28;5152;-68
2024/02/22 12:12:31;;;;;;;;;;;;;;;;;;4995234;28;5052;-68
2024/02/22 12:14:58;;;;;;;;;;;;;;;;;;4995614;28;1156;-68
2024/02/22 12:17:26;;;;;;;;;;;;;;;;;;4995136;28;4627;-67
2024/02/22 12:19:55;;;;;;;;;;;;;;;;;;4995663;28;5036;-68
2024/02/22 12:22:20;;;;;;;;;;;;;;;;;;4993239;28;5019;-68
2024/02/22 12:24:47;;;;;;;;;;;;;;;;;;4992830;28;5399;-68
2024/02/22 12:27:12;;;;;;;;;;;;;;;;;;4991813;28;1190;-68
2024/02/22 12:29:38;;;;;;;;;;;;;;;;;;5011695;28;4475;-68
2024/02/22 12:32:04;;;;;;;;;;;;;;;;;;4986439;28;5187;-68
2024/02/22 12:34:30;;;;;;;;;;;;;;;;;;5023537;28;4932;-68
2024/02/22 12:36:55;;;;;;;;;;;;;;;;;;4990654;28;4619;-68
2024/02/22 12:39:21;;;;;;;;;;;;;;;;;;4997376;28;5038;-68
2024/02/22 12:41:46;;;;;;;;;;;;;;;;;;4993644;28;1048;-68
2024/02/22 12:44:12;;;;;;;;;;;;;;;;;;4997406;28;4591;-68
2024/02/22 12:46:38;;;;;;;;;;;;;;;;;;4998585;28;5002;-68
2024/02/22 12:49:03;;;;;;;;;;;;;;;;;;4995514;28;5082;-68
2024/02/22 12:51:28;;;;;;;;;;;;;;;;;;4995622;28;5089;-68
2024/02/22 12:53:54;;;;;;;;;;;;;;;;;;4995801;28;1090;-68
2024/02/22 12:56:20;;;;;;;;;;;;;;;;;;4994315;28;4885;-68
2024/02/22 12:58:46;;;;;;;;;;;;;;;;;;4994590;28;4854;-68
2024/02/22 13:01:14;;;;;;;;;;;;;;;;;;4994679;28;5135;-68
2024/02/22 13:03:39;;;;;;;;;;;;;;;;;;4984074;28;4896;-68
2024/02/22 13:06:04;;;;;;;;;;;;;;;;;;5018094;28;1914;-68
2024/02/22 13:08:31;;;;;;;;;;;;;;;;;;4992665;28;5076;-68
2024/02/22 13:10:56;;;;;;;;;;;;;;;;;;4992064;28;5313;-68
2024/02/22 13:13:21;;;;;;;;;;;;;;;;;;4996163;28;5213;-68
2024/02/22 13:15:48;;;;;;;;;;;;;;;;;;4990688;28;5013;-68
2024/02/22 13:18:13;;;;;;;;;;;;;;;;;;4999171;28;1157;-68
2024/02/22 13:20:39;;;;;;;;;;;;;;;;;;5013209;28;4988;-68
2024/02/22 13:23:04;;;;;;;;;;;;;;;;;;5013213;28;4972;-68
2024/02/22 13:25:30;;;;;;;;;;;;;;;;;;5013532;28;5207;-68
2024/02/22 13:27:55;;;;;;;;;;;;;;;;;;5009350;28;4574;-68
2024/02/22 13:30:22;;;;;;;;;;;;;;;;;;5017849;28;4902;-68
2024/02/22 13:32:47;;;;;;;;;;;;;;;;;;5012854;28;1497;-68
2024/02/22 13:35:12;;;;;;;;;;;;;;;;;;5008367;28;5106;-68
2024/02/22 13:37:38;;;;;;;;;;;;;;;;;;5009768;28;5087;-68
2024/02/22 13:40:07;;;;;;;;;;;;;;;;;;5009619;28;5074;-68
2024/02/22 13:42:32;;;;;;;;;;;;;;;;;;4987722;28;5028;-68
2024/02/22 13:44:58;;;;;;;;;;;;;;;;;;5010042;28;1975;-68
2024/02/22 13:47:25;;;;;;;;;;;;;;;;;;4997768;28;4512;-68
2024/02/22 13:49:50;;;;;;;;;;;;;;;;;;4993400;28;5192;-68
2024/02/22 13:52:15;;;;;;;;;;;;;;;;;;4996872;28;5638;-68
2024/02/22 13:54:41;;;;;;;;;;;;;;;;;;4986297;28;5012;-68
2024/02/22 13:57:06;;;;;;;;;;;;;;;;;;4994130;28;1513;-68
2024/02/22 13:59:31;;;;;;;;;;;;;;;;;;4994538;28;4973;-68
2024/02/22 14:01:57;;;;;;;;;;;;;;;;;;4993572;28;5402;-67
2024/02/22 14:04:23;;;;;;;;;;;;;;;;;;4990016;28;5033;-68
2024/02/22 14:06:48;;;;;;;;;;;;;;;;;;4998675;28;5018;-69
2024/02/22 14:09:15;;;;;;;;;;;;;;;;;;4987763;28;1688;-68
2024/02/22 14:11:41;;;;;;;;;;;;;;;;;;5013029;28;5486;-68
2024/02/22 14:14:07;;;;;;;;;;;;;;;;;;5014108;28;5006;-68
2024/02/22 14:16:32;;;;;;;;;;;;;;;;;;4997401;28;5144;-69
2024/02/22 14:18:57;;;;;;;;;;;;;;;;;;4987728;28;4999;-64
2024/02/22 14:21:22;;;;;;;;;;;;;;;;;;4995888;28;5486;-62
2024/02/22 14:23:48;;;;;;;;;;;;;;;;;;4990107;28;1302;-62
2024/02/22 14:26:14;;;;;;;;;;;;;;;;;;4993108;28;5203;-62
2024/02/22 14:28:39;;;;;;;;;;;;;;;;;;4992110;28;5024;-62
2024/02/22 14:31:04;;;;;;;;;;;;;;;;;;4993600;28;5172;-62
2024/02/22 14:33:30;;;;;;;;;;;;;;;;;;4989453;28;4949;-62
2024/02/22 14:35:55;;;;;;;;;;;;;;;;;;4996549;28;1157;-62
2024/02/22 14:38:22;;;;;;;;;;;;;;;;;;5017576;28;4993;-62
2024/02/22 14:40:47;;;;;;;;;;;;;;;;;;4985372;28;5262;-64
2024/02/22 14:43:13;;;;;;;;;;;;;;;;;;4995240;28;5073;-63
2024/02/22 14:45:39;;;;;;;;;;;;;;;;;;4981835;28;5187;-53
2024/02/22 14:48:04;;;;;;;;;;;;;;;;;;4991171;28;3283;-51
2024/02/22 14:50:29;;;;;;;;;;;;;;;;;;4991894;28;5010;-53
2024/02/22 14:52:55;;;;;;;;;;;;;;;;;;4987648;28;5024;-52
2024/02/22 14:55:20;;;;;;;;;;;;;;;;;;4991556;28;4932;-52
2024/02/22 14:57:46;;;;;;;;;;;;;;;;;;4980808;28;5193;-57
2024/02/22 15:00:14;;;;;;;;;;;;;;;;;;4998776;28;2210;-57
2024/02/22 15:02:40;;;;;;;;;;;;;;;;;;5015882;28;5174;-57
2024/02/22 15:05:06;;;;;;;;;;;;;;;;;;5016303;28;5037;-58
2024/02/22 15:07:31;;;;;;;;;;;;;;;;;;5015545;28;5199;-57
2024/02/22 15:09:56;;;;;;;;;;;;;;;;;;5009417;28;5069;-57
2024/02/22 15:12:22;;;;;;;;;;;;;;;;;;5013468;28;5000;-57
2024/02/22 15:14:47;;;;;;;;;;;;;;;;;;5018977;28;1076;-57
2024/02/22 15:17:13;;;;;;;;;;;;;;;;;;4994123;28;4954;-57
2024/02/22 15:19:38;;;;;;;;;;;;;;;;;;4988642;28;5055;-58
2024/02/22 15:22:04;;;;;;;;;;;;;;;;;;5002109;28;5066;-57
2024/02/22 15:24:30;;;;;;;;;;;;;;;;;;4991990;28;4731;-57
2024/02/22 15:27:01;;;;;;;;;;;;;;;;;;4999099;28;1267;-57
2024/02/22 15:29:27;;;;;;;;;;;;;;;;;;5000442;28;4458;-57
2024/02/22 15:31:53;;;;;;;;;;;;;;;;;;4990621;28;4961;-58
2024/02/22 15:34:18;;;;;;;;;;;;;;;;;;4994949;28;4921;-57
2024/02/22 15:36:43;;;;;;;;;;;;;;;;;;4997559;28;5094;-52
2024/02/22 15:39:10;;;;;;;;;;;;;;;;;;4990848;28;1730;-57
2024/02/22 15:41:36;;;;;;;;;;;;;;;;;;4995743;28;5091;-53
2024/02/22 15:44:02;;;;;;;;;;;;;;;;;;4999208;28;5146;-53
2024/02/22 15:46:27;;;;;;;;;;;;;;;;;;4993635;28;4510;-54
2024/02/22 15:48:53;;;;;;;;;;;;;;;;;;4995547;28;5081;-57
2024/02/22 15:51:19;;;;;;;;;;;;;;;;;;4989376;28;4708;-54
2024/02/22 15:53:44;;;;;;;;;;;;;;;;;;4987590;28;1141;-58
2024/02/22 15:56:09;;;;;;;;;;;;;;;;;;4989441;28;4494;-57
2024/02/22 15:58:35;;;;;;;;;;;;;;;;;;4987943;28;5082;-57
2024/02/22 16:01:00;;;;;;;;;;;;;;;;;;4994388;28;4502;-58
2024/02/22 16:03:26;;;;;;;;;;;;;;;;;;4985187;28;5152;-56
2024/02/22 16:05:51;;;;;;;;;;;;;;;;;;4994341;28;1906;-56
2024/02/22 16:08:16;;;;;;;;;;;;;;;;;;4998904;28;4993;-56
2024/02/22 16:10:42;;;;;;;;;;;;;;;;;;4994303;28;5271;-56
2024/02/22 16:13:07;;;;;;;;;;;;;;;;;;4994710;28;4498;-56
2024/02/22 16:15:32;;;;;;;;;;;;;;;;;;4992153;28;4520;-60
2024/02/22 16:17:58;;;;;;;;;;;;;;;;;;4997508;28;1114;-56
2024/02/22 16:20:23;;;;;;;;;;;;;;;;;;4996505;28;4701;-56
2024/02/22 16:22:48;;;;;;;;;;;;;;;;;;4988113;28;4924;-56
2024/02/22 16:25:16;;;;;;;;;;;;;;;;;;4992128;28;5049;-57
2024/02/22 16:27:41;;;;;;;;;;;;;;;;;;4994000;28;4537;-56
2024/02/22 16:30:07;;;;;;;;;;;;;;;;;;4997410;28;1156;-57
2024/02/22 16:32:32;;;;;;;;;;;;;;;;;;4994142;28;4954;-57
2024/02/22 16:34:58;;;;;;;;;;;;;;;;;;4989666;28;5091;-56
2024/02/22 16:37:23;;;;;;;;;;;;;;;;;;4996712;28;4961;-56
2024/02/22 16:39:48;;;;;;;;;;;;;;;;;;4995172;28;5170;-56
2024/02/22 16:42:13;;;;;;;;;;;;;;;;;;4994932;28;1117;-56
2024/02/22 16:44:41;;;;;;;;;;;;;;;;;;5012656;28;5045;-58
2024/02/22 16:47:07;;;;;;;;;;;;;;;;;;5014311;28;4809;-57
2024/02/22 16:49:33;;;;;;;;;;;;;;;;;;5010259;28;4707;-56
2024/02/22 16:51:59;;;;;;;;;;;;;;;;;;5016326;28;5015;-57
2024/02/22 16:54:25;;;;;;;;;;;;;;;;;;5015762;28;4886;-56